East Corinth, VT (05040)

07:55 PM EDT del 22 Ottobre 2014 (GMT -0400)
Goshen Heights | Change Station
CLOSE
Current Station
Stazione meteo personale
Location: Bradford, VT
Altitudine: 1060 ft
Stazioni meteo nelle vicinanze

Alt. 1060 ft 44.01 °N, 72.14 °W | Updated 9 seconds ago

Pioggia
Pioggia
47.1 °F
Sembra 47 °F
N
0.0
Vento Variabile Vento da NE
Gusts 2.0 mph

Oggi
Massima -- | Minima -- °F
--% Possibilità di precip.
Ieri
Massima -- | Minima -- °F
Precip. -- in
7:12 AM 5:53 PM
Luna calante, 1% visible
Pressione 30.15 in
Visibilità 10.0 miglia
Nuvole Coperto 2900 ft
Raffreddamento del vento 47 °F
Punto di rugiada 43 °F
Umidità 86%
Piovosità 0.07 in
Spessore del manto nevoso Non disponibile.
Raggi UV 0 fuori da 12
Polline .10 fuori da 12
Ozono Buono
PM2.5 Buono
Flu Activity Sporadic
METAR KMPV 222351Z AUTO 02008KT 10SM -RA OVC029 09/06 A3013 RMK AO2 RAE2258B48 SLP210 P0000 60002 T00890056 10094 20083 58005 $

More Conditions Fewer Conditions

Pressione 30.15 in
Visibilità 10.0 miglia
Nuvole Coperto 2900 ft
Raffreddamento del vento 47 °F
Punto di rugiada 43 °F
Umidità 86%
Piovosità 0.07 in
Spessore del manto nevoso Non disponibile.
Raggi UV 0 fuori da 12
Polline .10 fuori da 12
Ozono Buono
PM2.5 Buono
Flu Activity Sporadic
METAR KMPV 222351Z AUTO 02008KT 10SM -RA OVC029 09/06 A3013 RMK AO2 RAE2258B48 SLP210 P0000 60002 T00890056 10094 20083 58005 $

More Conditions Fewer Conditions

10-Day Weather Forecast

Almanac

Astronomia

Oct. 22, 2014 Alba Tramonto
Ora attuale 07:12 EDT 17:53 EDT
Crepuscolo civile 06:42 EDT 18:22 EDT
Crepuscolo nautico 06:09 EDT 18:56 EDT
Crepuscolo astronomico 05:35 EDT 19:30 EDT
Luna 05:48 EDT 17:20 EDT
Estensione della luce visibile 11h 40m
Lunghezza del giorno
10h 41m
Tomorrow will be 2m 51s shorter.
Luna calante, 1% of the Moon is Illuminated
Oggi
Luna calante
Ott 23
Nuovo
Ott 30
Primo quarto
Nov 6
Luna piena
Nov 14
Ultimo quarto

Gli estremi di oggi

State Highs State Lows

Community

WunderPhotos

Upload Photos

1,764,080 foto caricate!

WunderBlogs® & News

Nearby

Qualità dell'aria

  Qualità dell'aria Indice AQ Inquinante
Ieri Buono
PM2.5
Ieri Buono
OZONE
Attuale Buono
PM2.5
Attuale Buono
OZONE
Mercoledì Buono
PM2.5
Giovedì Buono
PM2.5

Profondità neve

Stazione Profondità Altitudine
Non sono state evidenziate nuove nevicate

Attività sismica

Città  Distanza Mag. Data & Ora
Non sono state riportate attività sismiche nelle vicinanze.
Minimo Magnitudo Mostrato è 2.5.

Temperature delle acque costiere

Località Temperatura
Nessun dato dalle stazioni

Stazioni meteo nelle vicinanze